Strona główna
METAR-TAF:

METAR-TAF

Lotnisko :

Community_Airport

Owosso, Michigan, Stany Zjednoczone

Szerokość geograficzna: 42-59-34N, Długość geograficzna: 084-08-20W, wysokość: 224 m

Aktualna obserwacja pogody

Raport powstał 6 minut temu, godzina 22:36 UTC
Wiatr 6 kt od zachodnio-południowy zachód
Temperatura -4°C
Wilgotność 80%
Ciśnienie 1020 hPa
Widzialność: 16.1 km
Przerywane chmury na wysokości 4800 ft
słaby śnieg

METAR: KRNP 102236Z AUTO 25006KT 10SM -SN BKN048 M04/M07 A3013 RMK AO2 T10371066

czas: 17:42 (22:42 UTC)


TAF: brakujący

Obserwacja i prognoza pogody dla ponad 4000 lotnisk (raport METAR i TAF).

Dostępne stacje oznaczono żółtymi i czerwonymi punktami na mapie.

Najedź kursorem aby zobaczyć nazwę stacji.

Kliknij aby zobaczyć obserwacje i prognozy pogody.

Aby zmienić mapę: kliknij na zielony przycisk z czarnym krzyżykiem, aby powiększyć; na zielony przycisk z myślnikiem, aby pomniejszyć; na zielone strzałki, aby przejść do map sąsiednich.


METAR-TAF: